KNLC/NLC METAR and TAF weather

Enter ICAO airport designator
Station Type Date Time Source
KNLC METAR 2019/12/11 12:14 UTC NOAA

KNLC 111214Z AUTO 19005KT 3SM BR OVC002 09/08 A3025 RMK AO2 T00890083


Station Type Date Time Source
KNLC Decoded METAR 2019/12/11 12:14 UTC NOAA

LEMOORE NAVAL AIR STATION, CA, United States (KNLC) 36-20N 119-57W 72M
Dec 11, 2019 - 07:14 AM EST / 2019.12.11 1214 UTC
Wind: from the S (190 degrees) at 6 MPH (5 KT):0
Visibility: 3 mile(s):0
Sky conditions: overcast
Weather: mist
Temperature: 48.0 F (8.9 C)
Dew Point: 46.9 F (8.3 C)
Relative Humidity: 96%
Pressure (altimeter): 30.25 in. Hg (1024 hPa)
ob: KNLC 111214Z AUTO 19005KT 3SM BR OVC002 09/08 A3025 RMK AO2 T00890083
cycle: 12

Station Type Date Time Source
KNLC TAF 2019/12/11 07:05 UTC NOAA

TAF KNLC 1107/1207 VRB06KT 0400 VV001 651109 652002 551009 551909 532809 533704 QNH3018INS
BECMG 1119/1121 VRB06KT 3200 BR BKN005 BKN150 BKN200 600000 551008 552209 533109 QNH3016INS AUTOMATED SENSOR METWATCH 1108 TIL 1115 T06/1113Z T15/1123Z FS30012

Example: see airport list